sensor_id;sensor_type;location;lat;lon;timestamp;temperature;humidity
6206;DHT22;3136;48.788;9.772;2022-09-13T00:00:26;11.30;1.00
6206;DHT22;3136;48.788;9.772;2022-09-13T00:02:52;11.20;1.00
6206;DHT22;3136;48.788;9.772;2022-09-13T00:05:17;11.20;1.00
6206;DHT22;3136;48.788;9.772;2022-09-13T00:07:43;11.20;1.00
6206;DHT22;3136;48.788;9.772;2022-09-13T00:10:08;11.10;1.00
6206;DHT22;3136;48.788;9.772;2022-09-13T00:12:34;11.10;1.00
6206;DHT22;3136;48.788;9.772;2022-09-13T00:15:00;11.20;1.00
6206;DHT22;3136;48.788;9.772;2022-09-13T00:17:25;11.10;1.00
6206;DHT22;3136;48.788;9.772;2022-09-13T00:19:51;11.20;1.00
6206;DHT22;3136;48.788;9.772;2022-09-13T00:22:17;11.20;37.40
6206;DHT22;3136;48.788;9.772;2022-09-13T00:24:42;11.10;42.30
6206;DHT22;3136;48.788;9.772;2022-09-13T00:27:08;11.10;6.90
6206;DHT22;3136;48.788;9.772;2022-09-13T00:29:33;11.10;32.30
6206;DHT22;3136;48.788;9.772;2022-09-13T00:31:59;11.10;99.90
6206;DHT22;3136;48.788;9.772;2022-09-13T00:34:24;11.10;99.90
6206;DHT22;3136;48.788;9.772;2022-09-13T00:36:50;11.10;99.90
6206;DHT22;3136;48.788;9.772;2022-09-13T00:39:15;11.10;99.90
6206;DHT22;3136;48.788;9.772;2022-09-13T00:41:41;11.10;88.90
6206;DHT22;3136;48.788;9.772;2022-09-13T00:47:15;11.00;8.10
6206;DHT22;3136;48.788;9.772;2022-09-13T00:49:42;11.00;99.90
6206;DHT22;3136;48.788;9.772;2022-09-13T00:52:13;11.00;99.90
6206;DHT22;3136;48.788;9.772;2022-09-13T00:54:55;11.00;99.90
6206;DHT22;3136;48.788;9.772;2022-09-13T00:57:23;11.00;99.90
6206;DHT22;3136;48.788;9.772;2022-09-13T01:02:26;10.90;82.80
6206;DHT22;3136;48.788;9.772;2022-09-13T01:04:53;10.90;99.90
6206;DHT22;3136;48.788;9.772;2022-09-13T01:07:19;10.90;99.90
6206;DHT22;3136;48.788;9.772;2022-09-13T01:09:47;10.90;99.90
6206;DHT22;3136;48.788;9.772;2022-09-13T01:14:50;10.90;99.90
6206;DHT22;3136;48.788;9.772;2022-09-13T01:17:16;10.90;99.90
6206;DHT22;3136;48.788;9.772;2022-09-13T01:19:42;10.90;99.90
6206;DHT22;3136;48.788;9.772;2022-09-13T01:28:40;10.80;99.90
6206;DHT22;3136;48.788;9.772;2022-09-13T01:34:25;10.80;99.90
6206;DHT22;3136;48.788;9.772;2022-09-13T01:36:56;11.10;99.90
6206;DHT22;3136;48.788;9.772;2022-09-13T01:42:10;10.80;99.90
6206;DHT22;3136;48.788;9.772;2022-09-13T01:47:37;10.70;99.90
6206;DHT22;3136;48.788;9.772;2022-09-13T01:50:27;10.70;99.90
6206;DHT22;3136;48.788;9.772;2022-09-13T01:55:51;10.60;99.90
6206;DHT22;3136;48.788;9.772;2022-09-13T01:58:27;10.60;99.90
6206;DHT22;3136;48.788;9.772;2022-09-13T02:01:05;10.50;99.90
6206;DHT22;3136;48.788;9.772;2022-09-13T02:03:36;10.50;99.90
6206;DHT22;3136;48.788;9.772;2022-09-13T02:06:09;10.50;99.90
6206;DHT22;3136;48.788;9.772;2022-09-13T02:08:41;10.50;99.90
6206;DHT22;3136;48.788;9.772;2022-09-13T02:11:15;10.40;99.90
6206;DHT22;3136;48.788;9.772;2022-09-13T02:13:46;10.40;99.90
6206;DHT22;3136;48.788;9.772;2022-09-13T02:16:39;10.50;99.90
6206;DHT22;3136;48.788;9.772;2022-09-13T02:19:24;10.40;99.90
6206;DHT22;3136;48.788;9.772;2022-09-13T02:21:53;10.30;99.90
6206;DHT22;3136;48.788;9.772;2022-09-13T02:24:25;10.30;99.90
6206;DHT22;3136;48.788;9.772;2022-09-13T02:26:54;10.40;99.90
6206;DHT22;3136;48.788;9.772;2022-09-13T02:29:22;10.30;99.90
6206;DHT22;3136;48.788;9.772;2022-09-13T02:31:54;10.30;99.90
6206;DHT22;3136;48.788;9.772;2022-09-13T02:34:25;10.30;99.90
6206;DHT22;3136;48.788;9.772;2022-09-13T02:36:52;10.20;99.90
6206;DHT22;3136;48.788;9.772;2022-09-13T02:39:23;10.20;99.90
6206;DHT22;3136;48.788;9.772;2022-09-13T02:41:59;10.20;99.90
6206;DHT22;3136;48.788;9.772;2022-09-13T02:44:32;10.20;99.90
6206;DHT22;3136;48.788;9.772;2022-09-13T02:49:53;10.20;99.90
6206;DHT22;3136;48.788;9.772;2022-09-13T02:52:53;10.20;99.90
6206;DHT22;3136;48.788;9.772;2022-09-13T02:58:21;10.10;99.90
6206;DHT22;3136;48.788;9.772;2022-09-13T03:00:50;10.10;99.90
6206;DHT22;3136;48.788;9.772;2022-09-13T03:03:16;10.10;99.90
6206;DHT22;3136;48.788;9.772;2022-09-13T03:05:42;10.10;1.00
6206;DHT22;3136;48.788;9.772;2022-09-13T03:08:10;10.10;1.00
6206;DHT22;3136;48.788;9.772;2022-09-13T03:19:00;10.00;99.90
6206;DHT22;3136;48.788;9.772;2022-09-13T03:21:47;10.00;99.90
6206;DHT22;3136;48.788;9.772;2022-09-13T03:24:24;10.00;99.90
6206;DHT22;3136;48.788;9.772;2022-09-13T03:29:28;9.90;99.90
6206;DHT22;3136;48.788;9.772;2022-09-13T03:43:22;9.80;99.90
6206;DHT22;3136;48.788;9.772;2022-09-13T03:45:52;9.80;1.00
6206;DHT22;3136;48.788;9.772;2022-09-13T03:48:20;9.80;1.00
6206;DHT22;3136;48.788;9.772;2022-09-13T03:50:47;9.80;99.90
6206;DHT22;3136;48.788;9.772;2022-09-13T03:53:17;9.80;99.90
6206;DHT22;3136;48.788;9.772;2022-09-13T03:55:44;9.80;99.90
6206;DHT22;3136;48.788;9.772;2022-09-13T03:58:12;9.70;99.90
6206;DHT22;3136;48.788;9.772;2022-09-13T04:00:37;9.80;99.90
6206;DHT22;3136;48.788;9.772;2022-09-13T04:03:05;9.80;1.00
6206;DHT22;3136;48.788;9.772;2022-09-13T04:05:31;9.80;1.00
6206;DHT22;3136;48.788;9.772;2022-09-13T04:07:58;9.80;1.00
6206;DHT22;3136;48.788;9.772;2022-09-13T04:10:23;9.70;1.00
6206;DHT22;3136;48.788;9.772;2022-09-13T04:12:49;9.70;1.00
6206;DHT22;3136;48.788;9.772;2022-09-13T04:15:14;9.70;1.00
6206;DHT22;3136;48.788;9.772;2022-09-13T04:17:41;9.70;99.90
6206;DHT22;3136;48.788;9.772;2022-09-13T04:20:06;9.60;99.90
6206;DHT22;3136;48.788;9.772;2022-09-13T04:22:32;9.60;1.00
6206;DHT22;3136;48.788;9.772;2022-09-13T04:24:59;9.60;1.00
6206;DHT22;3136;48.788;9.772;2022-09-13T04:27:24;9.60;1.00
6206;DHT22;3136;48.788;9.772;2022-09-13T04:29:50;9.70;1.00
6206;DHT22;3136;48.788;9.772;2022-09-13T04:32:15;9.70;1.00
6206;DHT22;3136;48.788;9.772;2022-09-13T04:34:41;9.70;1.00
6206;DHT22;3136;48.788;9.772;2022-09-13T04:37:07;9.70;1.00
6206;DHT22;3136;48.788;9.772;2022-09-13T04:39:33;9.70;1.00
6206;DHT22;3136;48.788;9.772;2022-09-13T04:41:59;9.70;1.00
6206;DHT22;3136;48.788;9.772;2022-09-13T04:44:24;9.80;1.00
6206;DHT22;3136;48.788;9.772;2022-09-13T04:46:50;9.80;1.00
6206;DHT22;3136;48.788;9.772;2022-09-13T04:49:17;9.80;99.90
6206;DHT22;3136;48.788;9.772;2022-09-13T04:51:43;9.70;99.90
6206;DHT22;3136;48.788;9.772;2022-09-13T04:54:10;9.70;99.90
6206;DHT22;3136;48.788;9.772;2022-09-13T04:56:36;9.70;99.90
6206;DHT22;3136;48.788;9.772;2022-09-13T04:59:01;9.70;99.90
6206;DHT22;3136;48.788;9.772;2022-09-13T05:01:29;9.70;1.00
6206;DHT22;3136;48.788;9.772;2022-09-13T05:03:54;9.70;1.00
6206;DHT22;3136;48.788;9.772;2022-09-13T05:06:21;9.80;1.00
6206;DHT22;3136;48.788;9.772;2022-09-13T05:08:51;9.90;1.00
6206;DHT22;3136;48.788;9.772;2022-09-13T05:11:20;9.80;1.00
6206;DHT22;3136;48.788;9.772;2022-09-13T05:13:51;9.80;99.90
6206;DHT22;3136;48.788;9.772;2022-09-13T05:16:19;9.80;1.00
6206;DHT22;3136;48.788;9.772;2022-09-13T05:18:45;9.80;1.00
6206;DHT22;3136;48.788;9.772;2022-09-13T05:21:10;9.90;1.00
6206;DHT22;3136;48.788;9.772;2022-09-13T05:23:36;10.00;1.00
6206;DHT22;3136;48.788;9.772;2022-09-13T05:26:04;10.10;1.00
6206;DHT22;3136;48.788;9.772;2022-09-13T05:28:32;10.20;1.00
6206;DHT22;3136;48.788;9.772;2022-09-13T05:31:19;10.30;1.00
6206;DHT22;3136;48.788;9.772;2022-09-13T05:33:47;10.40;1.00
6206;DHT22;3136;48.788;9.772;2022-09-13T05:36:13;10.50;1.00
6206;DHT22;3136;48.788;9.772;2022-09-13T05:38:39;10.60;1.00
6206;DHT22;3136;48.788;9.772;2022-09-13T05:41:05;10.60;1.00
6206;DHT22;3136;48.788;9.772;2022-09-13T05:43:33;10.70;1.00
6206;DHT22;3136;48.788;9.772;2022-09-13T05:46:06;10.70;1.00
6206;DHT22;3136;48.788;9.772;2022-09-13T05:48:33;10.80;1.00
6206;DHT22;3136;48.788;9.772;2022-09-13T05:51:07;10.90;1.00
6206;DHT22;3136;48.788;9.772;2022-09-13T05:53:34;11.00;1.00
6206;DHT22;3136;48.788;9.772;2022-09-13T05:56:00;11.10;1.00
6206;DHT22;3136;48.788;9.772;2022-09-13T05:58:26;11.20;99.90
6206;DHT22;3136;48.788;9.772;2022-09-13T06:00:55;11.30;99.90
6206;DHT22;3136;48.788;9.772;2022-09-13T06:03:21;11.30;99.90
6206;DHT22;3136;48.788;9.772;2022-09-13T06:05:48;11.40;99.90
6206;DHT22;3136;48.788;9.772;2022-09-13T06:08:13;11.40;79.10
6206;DHT22;3136;48.788;9.772;2022-09-13T06:10:39;11.40;61.90
6206;DHT22;3136;48.788;9.772;2022-09-13T06:13:05;11.50;99.90
6206;DHT22;3136;48.788;9.772;2022-09-13T06:15:30;11.40;99.90
6206;DHT22;3136;48.788;9.772;2022-09-13T06:17:56;11.50;99.90
6206;DHT22;3136;48.788;9.772;2022-09-13T06:20:21;11.60;99.90
6206;DHT22;3136;48.788;9.772;2022-09-13T06:22:47;11.60;99.90
6206;DHT22;3136;48.788;9.772;2022-09-13T06:25:13;11.70;99.90
6206;DHT22;3136;48.788;9.772;2022-09-13T06:27:39;11.80;99.90
6206;DHT22;3136;48.788;9.772;2022-09-13T06:30:05;11.80;1.00
6206;DHT22;3136;48.788;9.772;2022-09-13T06:32:36;11.90;1.00
6206;DHT22;3136;48.788;9.772;2022-09-13T06:35:01;11.90;1.00
6206;DHT22;3136;48.788;9.772;2022-09-13T06:37:27;12.10;1.00
6206;DHT22;3136;48.788;9.772;2022-09-13T06:39:52;12.20;1.00
6206;DHT22;3136;48.788;9.772;2022-09-13T06:42:18;12.30;1.00
6206;DHT22;3136;48.788;9.772;2022-09-13T06:44:44;12.50;1.00
6206;DHT22;3136;48.788;9.772;2022-09-13T06:47:13;12.50;1.00
6206;DHT22;3136;48.788;9.772;2022-09-13T06:49:38;12.70;99.90
6206;DHT22;3136;48.788;9.772;2022-09-13T06:52:04;12.80;99.90
6206;DHT22;3136;48.788;9.772;2022-09-13T06:54:30;12.90;6.60
6206;DHT22;3136;48.788;9.772;2022-09-13T06:56:55;13.00;99.90
6206;DHT22;3136;48.788;9.772;2022-09-13T06:59:21;13.10;1.00
6206;DHT22;3136;48.788;9.772;2022-09-13T07:01:46;13.20;1.00
6206;DHT22;3136;48.788;9.772;2022-09-13T07:04:15;13.40;97.10
6206;DHT22;3136;48.788;9.772;2022-09-13T07:06:43;13.50;2.40
6206;DHT22;3136;48.788;9.772;2022-09-13T07:09:18;13.50;88.00
6206;DHT22;3136;48.788;9.772;2022-09-13T07:11:46;13.60;1.00
6206;DHT22;3136;48.788;9.772;2022-09-13T07:14:13;13.70;97.90
6206;DHT22;3136;48.788;9.772;2022-09-13T07:16:39;13.80;36.20
6206;DHT22;3136;48.788;9.772;2022-09-13T07:19:07;13.80;1.00
6206;DHT22;3136;48.788;9.772;2022-09-13T07:21:35;13.90;1.00
6206;DHT22;3136;48.788;9.772;2022-09-13T07:24:01;14.00;1.00
6206;DHT22;3136;48.788;9.772;2022-09-13T07:26:27;14.10;1.00
6206;DHT22;3136;48.788;9.772;2022-09-13T07:28:55;14.30;99.90
6206;DHT22;3136;48.788;9.772;2022-09-13T07:31:23;14.40;1.00
6206;DHT22;3136;48.788;9.772;2022-09-13T07:33:53;14.50;1.00
6206;DHT22;3136;48.788;9.772;2022-09-13T07:36:20;14.70;1.00
6206;DHT22;3136;48.788;9.772;2022-09-13T07:38:45;14.80;1.00
6206;DHT22;3136;48.788;9.772;2022-09-13T07:41:14;15.00;1.00
6206;DHT22;3136;48.788;9.772;2022-09-13T07:43:39;15.10;99.90
6206;DHT22;3136;48.788;9.772;2022-09-13T07:46:16;15.30;99.90
6206;DHT22;3136;48.788;9.772;2022-09-13T07:48:43;15.30;99.90
6206;DHT22;3136;48.788;9.772;2022-09-13T07:53:38;15.50;99.90
6206;DHT22;3136;48.788;9.772;2022-09-13T07:56:09;15.60;99.90
6206;DHT22;3136;48.788;9.772;2022-09-13T07:58:36;15.50;99.90
6206;DHT22;3136;48.788;9.772;2022-09-13T08:03:36;15.90;99.90
6206;DHT22;3136;48.788;9.772;2022-09-13T08:06:03;16.00;99.90
6206;DHT22;3136;48.788;9.772;2022-09-13T08:08:29;16.20;99.90
6206;DHT22;3136;48.788;9.772;2022-09-13T08:10:55;16.40;99.90
6206;DHT22;3136;48.788;9.772;2022-09-13T08:13:22;16.50;99.90
6206;DHT22;3136;48.788;9.772;2022-09-13T08:15:47;16.70;99.90
6206;DHT22;3136;48.788;9.772;2022-09-13T08:18:14;16.90;99.90
6206;DHT22;3136;48.788;9.772;2022-09-13T08:20:40;17.00;99.90
6206;DHT22;3136;48.788;9.772;2022-09-13T08:23:06;17.10;99.90
6206;DHT22;3136;48.788;9.772;2022-09-13T08:25:33;17.20;99.90
6206;DHT22;3136;48.788;9.772;2022-09-13T08:28:21;17.30;99.90
6206;DHT22;3136;48.788;9.772;2022-09-13T08:30:49;17.50;99.90
6206;DHT22;3136;48.788;9.772;2022-09-13T08:33:15;17.80;99.90
6206;DHT22;3136;48.788;9.772;2022-09-13T08:35:48;17.90;99.90
6206;DHT22;3136;48.788;9.772;2022-09-13T08:38:13;18.10;99.90
6206;DHT22;3136;48.788;9.772;2022-09-13T08:40:40;18.30;99.90
6206;DHT22;3136;48.788;9.772;2022-09-13T08:46:01;18.80;99.90
6206;DHT22;3136;48.788;9.772;2022-09-13T08:48:34;19.10;99.90
6206;DHT22;3136;48.788;9.772;2022-09-13T08:51:04;19.30;99.90
6206;DHT22;3136;48.788;9.772;2022-09-13T08:53:39;19.50;99.90
6206;DHT22;3136;48.788;9.772;2022-09-13T08:59:05;19.70;99.90
6206;DHT22;3136;48.788;9.772;2022-09-13T09:07:10;20.60;99.90
6206;DHT22;3136;48.788;9.772;2022-09-13T09:09:52;20.80;99.90
6206;DHT22;3136;48.788;9.772;2022-09-13T09:12:36;21.00;99.90
6206;DHT22;3136;48.788;9.772;2022-09-13T09:20:26;21.50;99.90
6206;DHT22;3136;48.788;9.772;2022-09-13T09:22:53;21.80;99.90
6206;DHT22;3136;48.788;9.772;2022-09-13T09:25:22;21.90;99.90
6206;DHT22;3136;48.788;9.772;2022-09-13T09:27:49;22.20;99.90
6206;DHT22;3136;48.788;9.772;2022-09-13T09:30:15;22.40;99.90
6206;DHT22;3136;48.788;9.772;2022-09-13T09:33:08;22.50;99.90
6206;DHT22;3136;48.788;9.772;2022-09-13T09:36:03;22.60;99.90
6206;DHT22;3136;48.788;9.772;2022-09-13T09:41:00;23.10;95.70
6206;DHT22;3136;48.788;9.772;2022-09-13T09:43:36;23.30;93.80
6206;DHT22;3136;48.788;9.772;2022-09-13T09:46:05;23.50;94.10
6206;DHT22;3136;48.788;9.772;2022-09-13T09:48:39;23.70;94.30
6206;DHT22;3136;48.788;9.772;2022-09-13T09:51:07;23.80;92.30
6206;DHT22;3136;48.788;9.772;2022-09-13T09:53:38;23.90;91.60
6206;DHT22;3136;48.788;9.772;2022-09-13T09:56:53;24.00;89.10
6206;DHT22;3136;48.788;9.772;2022-09-13T09:59:29;24.10;90.10
6206;DHT22;3136;48.788;9.772;2022-09-13T10:01:56;24.00;83.30
6206;DHT22;3136;48.788;9.772;2022-09-13T10:04:23;24.10;80.10
6206;DHT22;3136;48.788;9.772;2022-09-13T10:06:50;24.20;75.50
6206;DHT22;3136;48.788;9.772;2022-09-13T10:09:31;24.10;75.70
6206;DHT22;3136;48.788;9.772;2022-09-13T10:11:58;24.40;75.40
6206;DHT22;3136;48.788;9.772;2022-09-13T10:17:25;24.90;73.40
6206;DHT22;3136;48.788;9.772;2022-09-13T10:22:33;25.30;63.10
6206;DHT22;3136;48.788;9.772;2022-09-13T10:25:28;25.30;67.90
6206;DHT22;3136;48.788;9.772;2022-09-13T10:27:56;25.50;64.50
6206;DHT22;3136;48.788;9.772;2022-09-13T10:30:39;26.00;60.50
6206;DHT22;3136;48.788;9.772;2022-09-13T10:35:49;26.70;56.90
6206;DHT22;3136;48.788;9.772;2022-09-13T10:38:24;27.00;54.90
6206;DHT22;3136;48.788;9.772;2022-09-13T10:40:50;27.60;51.10
6206;DHT22;3136;48.788;9.772;2022-09-13T10:43:16;27.60;47.60
6206;DHT22;3136;48.788;9.772;2022-09-13T10:45:48;28.20;46.20
6206;DHT22;3136;48.788;9.772;2022-09-13T10:48:16;29.20;43.40
6206;DHT22;3136;48.788;9.772;2022-09-13T10:51:04;30.20;41.10
6206;DHT22;3136;48.788;9.772;2022-09-13T10:53:37;31.00;38.20
6206;DHT22;3136;48.788;9.772;2022-09-13T10:56:04;31.30;37.30
6206;DHT22;3136;48.788;9.772;2022-09-13T10:58:30;31.00;35.00
6206;DHT22;3136;48.788;9.772;2022-09-13T11:01:27;31.30;34.10
6206;DHT22;3136;48.788;9.772;2022-09-13T11:12:27;33.00;30.10
6206;DHT22;3136;48.788;9.772;2022-09-13T11:15:04;33.50;27.90
6206;DHT22;3136;48.788;9.772;2022-09-13T11:26:00;32.60;26.30
6206;DHT22;3136;48.788;9.772;2022-09-13T11:45:16;34.80;19.40
6206;DHT22;3136;48.788;9.772;2022-09-13T11:55:49;33.70;16.60
6206;DHT22;3136;48.788;9.772;2022-09-13T11:58:27;33.70;16.60
6206;DHT22;3136;48.788;9.772;2022-09-13T12:01:00;34.40;17.30
6206;DHT22;3136;48.788;9.772;2022-09-13T12:03:28;33.20;14.80
6206;DHT22;3136;48.788;9.772;2022-09-13T12:06:03;33.00;16.40
6206;DHT22;3136;48.788;9.772;2022-09-13T12:08:35;32.50;14.80
6206;DHT22;3136;48.788;9.772;2022-09-13T12:11:31;32.40;15.40
6206;DHT22;3136;48.788;9.772;2022-09-13T12:14:01;32.00;14.50
6206;DHT22;3136;48.788;9.772;2022-09-13T12:16:40;31.50;16.50
6206;DHT22;3136;48.788;9.772;2022-09-13T12:19:18;31.20;14.20
6206;DHT22;3136;48.788;9.772;2022-09-13T12:21:46;30.80;13.60
6206;DHT22;3136;48.788;9.772;2022-09-13T12:24:17;31.50;21.50
6206;DHT22;3136;48.788;9.772;2022-09-13T12:29:32;33.50;12.10
6206;DHT22;3136;48.788;9.772;2022-09-13T12:32:05;34.60;11.10
6206;DHT22;3136;48.788;9.772;2022-09-13T12:49:17;36.40;9.20
6206;DHT22;3136;48.788;9.772;2022-09-13T12:57:51;34.10;6.50
6206;DHT22;3136;48.788;9.772;2022-09-13T13:00:25;34.00;6.70
6206;DHT22;3136;48.788;9.772;2022-09-13T13:03:03;33.90;7.40
6206;DHT22;3136;48.788;9.772;2022-09-13T13:05:43;33.80;7.80
6206;DHT22;3136;48.788;9.772;2022-09-13T13:10:44;34.00;5.20
6206;DHT22;3136;48.788;9.772;2022-09-13T13:13:33;34.40;4.80
6206;DHT22;3136;48.788;9.772;2022-09-13T13:16:04;33.80;4.90
6206;DHT22;3136;48.788;9.772;2022-09-13T13:23:32;32.50;4.30
6206;DHT22;3136;48.788;9.772;2022-09-13T13:26:11;32.00;4.70
6206;DHT22;3136;48.788;9.772;2022-09-13T13:31:32;32.10;4.90
6206;DHT22;3136;48.788;9.772;2022-09-13T13:39:08;33.60;3.20
6206;DHT22;3136;48.788;9.772;2022-09-13T13:41:42;33.70;3.50
6206;DHT22;3136;48.788;9.772;2022-09-13T13:46:50;33.70;18.70
6206;DHT22;3136;48.788;9.772;2022-09-13T14:00:15;30.90;3.70
6206;DHT22;3136;48.788;9.772;2022-09-13T14:10:38;30.10;3.90
6206;DHT22;3136;48.788;9.772;2022-09-13T14:13:41;27.80;3.00
6206;DHT22;3136;48.788;9.772;2022-09-13T14:19:14;29.00;5.20
6206;DHT22;3136;48.788;9.772;2022-09-13T14:21:41;28.90;4.60
6206;DHT22;3136;48.788;9.772;2022-09-13T14:24:12;29.00;5.30
6206;DHT22;3136;48.788;9.772;2022-09-13T14:26:40;28.90;4.70
6206;DHT22;3136;48.788;9.772;2022-09-13T14:29:07;28.80;4.90
6206;DHT22;3136;48.788;9.772;2022-09-13T14:31:32;28.40;5.10
6206;DHT22;3136;48.788;9.772;2022-09-13T14:33:58;28.10;6.30
6206;DHT22;3136;48.788;9.772;2022-09-13T14:36:24;27.70;7.90
6206;DHT22;3136;48.788;9.772;2022-09-13T14:38:56;27.50;6.60
6206;DHT22;3136;48.788;9.772;2022-09-13T14:41:33;27.30;7.60
6206;DHT22;3136;48.788;9.772;2022-09-13T14:44:22;27.00;9.30
6206;DHT22;3136;48.788;9.772;2022-09-13T14:47:12;26.80;9.60
6206;DHT22;3136;48.788;9.772;2022-09-13T14:49:43;26.80;9.90
6206;DHT22;3136;48.788;9.772;2022-09-13T14:52:24;26.60;14.20
6206;DHT22;3136;48.788;9.772;2022-09-13T14:54:54;26.30;16.50
6206;DHT22;3136;48.788;9.772;2022-09-13T14:57:23;26.10;17.00
6206;DHT22;3136;48.788;9.772;2022-09-13T14:59:55;26.00;17.10
6206;DHT22;3136;48.788;9.772;2022-09-13T15:03:09;26.00;18.20
6206;DHT22;3136;48.788;9.772;2022-09-13T15:05:15;26.00;18.50
6206;DHT22;3136;48.788;9.772;2022-09-13T15:07:41;26.10;20.60
6206;DHT22;3136;48.788;9.772;2022-09-13T15:12:52;26.10;24.70
6206;DHT22;3136;48.788;9.772;2022-09-13T15:17:58;25.90;26.40
6206;DHT22;3136;48.788;9.772;2022-09-13T15:20:27;25.70;27.60
6206;DHT22;3136;48.788;9.772;2022-09-13T15:22:54;25.70;24.40
6206;DHT22;3136;48.788;9.772;2022-09-13T15:25:27;25.70;23.80
6206;DHT22;3136;48.788;9.772;2022-09-13T15:27:55;25.70;24.80
6206;DHT22;3136;48.788;9.772;2022-09-13T15:30:38;25.70;23.10
6206;DHT22;3136;48.788;9.772;2022-09-13T15:33:21;25.70;23.70
6206;DHT22;3136;48.788;9.772;2022-09-13T15:35:46;25.80;22.40
6206;DHT22;3136;48.788;9.772;2022-09-13T15:38:27;25.70;23.00
6206;DHT22;3136;48.788;9.772;2022-09-13T15:41:13;25.70;23.30
6206;DHT22;3136;48.788;9.772;2022-09-13T15:43:41;25.60;23.10
6206;DHT22;3136;48.788;9.772;2022-09-13T15:46:13;25.50;24.20
6206;DHT22;3136;48.788;9.772;2022-09-13T15:48:39;25.30;23.40
6206;DHT22;3136;48.788;9.772;2022-09-13T15:51:12;25.10;24.80
6206;DHT22;3136;48.788;9.772;2022-09-13T15:53:39;25.10;25.30
6206;DHT22;3136;48.788;9.772;2022-09-13T15:56:06;24.90;27.40
6206;DHT22;3136;48.788;9.772;2022-09-13T15:58:33;24.70;27.30
6206;DHT22;3136;48.788;9.772;2022-09-13T16:00:59;24.50;28.00
6206;DHT22;3136;48.788;9.772;2022-09-13T16:03:27;24.40;26.40
6206;DHT22;3136;48.788;9.772;2022-09-13T16:05:53;24.30;28.00
6206;DHT22;3136;48.788;9.772;2022-09-13T16:08:18;24.30;30.10
6206;DHT22;3136;48.788;9.772;2022-09-13T16:10:44;24.10;32.10
6206;DHT22;3136;48.788;9.772;2022-09-13T16:13:09;24.00;34.70
6206;DHT22;3136;48.788;9.772;2022-09-13T16:15:35;23.80;39.90
6206;DHT22;3136;48.788;9.772;2022-09-13T16:18:01;23.60;44.10
6206;DHT22;3136;48.788;9.772;2022-09-13T16:20:26;23.50;47.30
6206;DHT22;3136;48.788;9.772;2022-09-13T16:22:53;23.40;47.40
6206;DHT22;3136;48.788;9.772;2022-09-13T16:25:19;23.20;49.20
6206;DHT22;3136;48.788;9.772;2022-09-13T16:27:44;23.10;52.20
6206;DHT22;3136;48.788;9.772;2022-09-13T16:30:15;22.90;54.60
6206;DHT22;3136;48.788;9.772;2022-09-13T16:32:41;22.90;58.70
6206;DHT22;3136;48.788;9.772;2022-09-13T16:35:08;22.70;64.80
6206;DHT22;3136;48.788;9.772;2022-09-13T16:37:34;22.60;69.20
6206;DHT22;3136;48.788;9.772;2022-09-13T16:40:00;22.40;79.10
6206;DHT22;3136;48.788;9.772;2022-09-13T16:42:25;22.30;81.70
6206;DHT22;3136;48.788;9.772;2022-09-13T16:44:51;22.30;86.70
6206;DHT22;3136;48.788;9.772;2022-09-13T16:47:17;22.10;91.50
6206;DHT22;3136;48.788;9.772;2022-09-13T16:49:43;22.00;95.60
6206;DHT22;3136;48.788;9.772;2022-09-13T16:52:09;21.80;99.90
6206;DHT22;3136;48.788;9.772;2022-09-13T16:54:35;21.80;99.90
6206;DHT22;3136;48.788;9.772;2022-09-13T16:57:02;21.70;99.40
6206;DHT22;3136;48.788;9.772;2022-09-13T16:59:29;21.80;99.90
6206;DHT22;3136;48.788;9.772;2022-09-13T17:01:55;21.60;99.90
6206;DHT22;3136;48.788;9.772;2022-09-13T17:04:21;21.60;99.90
6206;DHT22;3136;48.788;9.772;2022-09-13T17:06:46;21.40;99.90
6206;DHT22;3136;48.788;9.772;2022-09-13T17:09:12;21.30;99.90
6206;DHT22;3136;48.788;9.772;2022-09-13T17:11:40;21.30;99.90
6206;DHT22;3136;48.788;9.772;2022-09-13T17:14:08;21.10;99.90
6206;DHT22;3136;48.788;9.772;2022-09-13T17:16:38;21.10;99.90
6206;DHT22;3136;48.788;9.772;2022-09-13T17:19:11;21.00;99.90
6206;DHT22;3136;48.788;9.772;2022-09-13T17:21:37;20.90;99.90
6206;DHT22;3136;48.788;9.772;2022-09-13T17:24:03;20.80;99.90
6206;DHT22;3136;48.788;9.772;2022-09-13T17:26:29;20.70;99.90
6206;DHT22;3136;48.788;9.772;2022-09-13T17:28:55;20.80;99.90
6206;DHT22;3136;48.788;9.772;2022-09-13T17:31:20;20.60;99.90
6206;DHT22;3136;48.788;9.772;2022-09-13T17:33:46;20.50;99.90
6206;DHT22;3136;48.788;9.772;2022-09-13T17:36:12;20.50;99.90
6206;DHT22;3136;48.788;9.772;2022-09-13T17:38:39;20.50;99.90
6206;DHT22;3136;48.788;9.772;2022-09-13T17:41:11;20.20;99.90
6206;DHT22;3136;48.788;9.772;2022-09-13T17:43:38;20.20;99.90
6206;DHT22;3136;48.788;9.772;2022-09-13T17:46:10;20.00;99.90
6206;DHT22;3136;48.788;9.772;2022-09-13T17:48:36;19.90;99.90
6206;DHT22;3136;48.788;9.772;2022-09-13T17:51:08;19.90;99.90
6206;DHT22;3136;48.788;9.772;2022-09-13T17:53:38;19.80;99.90
6206;DHT22;3136;48.788;9.772;2022-09-13T17:56:05;19.80;99.90
6206;DHT22;3136;48.788;9.772;2022-09-13T17:58:32;19.70;99.90
6206;DHT22;3136;48.788;9.772;2022-09-13T18:01:07;19.60;99.90
6206;DHT22;3136;48.788;9.772;2022-09-13T18:03:33;19.50;99.90
6206;DHT22;3136;48.788;9.772;2022-09-13T18:06:02;19.50;99.90
6206;DHT22;3136;48.788;9.772;2022-09-13T18:08:29;19.50;99.90
6206;DHT22;3136;48.788;9.772;2022-09-13T18:11:01;19.30;99.90
6206;DHT22;3136;48.788;9.772;2022-09-13T18:13:28;19.30;99.90
6206;DHT22;3136;48.788;9.772;2022-09-13T18:16:02;19.20;99.90
6206;DHT22;3136;48.788;9.772;2022-09-13T18:18:28;19.20;99.90
6206;DHT22;3136;48.788;9.772;2022-09-13T18:20:55;19.10;99.90
6206;DHT22;3136;48.788;9.772;2022-09-13T18:23:21;19.30;99.90
6206;DHT22;3136;48.788;9.772;2022-09-13T18:26:03;19.10;99.90
6206;DHT22;3136;48.788;9.772;2022-09-13T18:28:30;19.00;99.90
6206;DHT22;3136;48.788;9.772;2022-09-13T18:31:00;18.90;99.90
6206;DHT22;3136;48.788;9.772;2022-09-13T18:33:27;18.80;99.90
6206;DHT22;3136;48.788;9.772;2022-09-13T18:36:04;18.80;99.90
6206;DHT22;3136;48.788;9.772;2022-09-13T18:38:32;18.70;99.90
6206;DHT22;3136;48.788;9.772;2022-09-13T18:41:05;18.70;99.90
6206;DHT22;3136;48.788;9.772;2022-09-13T18:43:32;18.60;99.90
6206;DHT22;3136;48.788;9.772;2022-09-13T18:46:00;18.50;99.90
6206;DHT22;3136;48.788;9.772;2022-09-13T18:48:30;18.50;99.90
6206;DHT22;3136;48.788;9.772;2022-09-13T18:50:56;18.40;99.90
6206;DHT22;3136;48.788;9.772;2022-09-13T18:53:21;18.40;99.90
6206;DHT22;3136;48.788;9.772;2022-09-13T18:55:47;18.30;99.90
6206;DHT22;3136;48.788;9.772;2022-09-13T18:58:12;18.30;99.90
6206;DHT22;3136;48.788;9.772;2022-09-13T19:00:39;18.20;99.90
6206;DHT22;3136;48.788;9.772;2022-09-13T19:03:04;18.20;99.90
6206;DHT22;3136;48.788;9.772;2022-09-13T19:05:32;18.20;99.90
6206;DHT22;3136;48.788;9.772;2022-09-13T19:07:58;18.10;99.90
6206;DHT22;3136;48.788;9.772;2022-09-13T19:10:25;18.10;99.90
6206;DHT22;3136;48.788;9.772;2022-09-13T19:12:51;18.00;99.90
6206;DHT22;3136;48.788;9.772;2022-09-13T19:15:17;17.90;99.90
6206;DHT22;3136;48.788;9.772;2022-09-13T19:17:42;17.90;99.90
6206;DHT22;3136;48.788;9.772;2022-09-13T19:20:08;17.80;99.90
6206;DHT22;3136;48.788;9.772;2022-09-13T19:22:34;17.70;99.90
6206;DHT22;3136;48.788;9.772;2022-09-13T19:24:59;17.70;99.90
6206;DHT22;3136;48.788;9.772;2022-09-13T19:27:25;17.60;99.90
6206;DHT22;3136;48.788;9.772;2022-09-13T19:29:50;17.60;99.90
6206;DHT22;3136;48.788;9.772;2022-09-13T19:32:17;17.60;99.90
6206;DHT22;3136;48.788;9.772;2022-09-13T19:34:42;17.50;99.90
6206;DHT22;3136;48.788;9.772;2022-09-13T19:37:08;17.50;99.90
6206;DHT22;3136;48.788;9.772;2022-09-13T19:39:33;17.40;99.90